Agamemnon — D5CN6 — position and weather

sailwx.info

Track history (hours):
 
Tides and Currents Weather Stations Pressure Air Temp Water Temp Dewpoint Dewpoint Depression Visibility Wind Speed Wind Dir Waves Ship Positions

Agamemnon

Last reported at 2018-Feb-17 20:19 UTC. Time now 2018-Feb-21 15:34 UTC.
Position N 41°38' E 142°06'.

Length 318 m; draft 12.1 m.

Type: Cargo ship. MMSI: 636015744.

Date/timePositionNaut miles runAvg speedWind from/ knotsBaromVisibWave heightAir tempDewpointWater temp
2018-Feb-17 20:19N 41°38' E 142°06'819.1
2018-Feb-17 19:54N 41°38' E 141°56'719.3
2018-Feb-17 19:30N 41°37' E 141°46'1020.6
2018-Feb-17 19:00N 41°37' E 141°32'1121.6
2018-Feb-17 18:30N 41°36' E 141°17'1122.8
2018-Feb-17 18:00N 41°37' E 141°02'1223.3
2018-Feb-17 17:31N 41°34' E 140°47'1122.2
2018-Feb-17 17:00N 41°28' E 140°35'1223.2
2018-Feb-17 16:31N 41°21' E 140°22'1223.1
2018-Feb-17 16:00N 41°15' E 140°09'  
2018-Feb-10 04:40N 31°05' E 122°42'518.9
2018-Feb-10 04:25N 31°06' E 122°37'914.8
2018-Feb-10 03:49N 31°06' E 122°26'410.5
2018-Feb-10 03:28N 31°06' E 122°22'1513.3
2018-Feb-10 02:22N 31°13' E 122°07'1013.0
2018-Feb-10 01:35N 31°15' E 121°55'112.2
2018-Feb-10 01:30N 31°16' E 121°54'612.0
2018-Feb-10 00:58N 31°18' E 121°47'611.5
2018-Feb-10 00:27N 31°20' E 121°41'511.6
2018-Feb-10 00:00N 31°23' E 121°35'1 1.0
2018-Feb-09 23:28N 31°23' E 121°35'12 0.3
2018-Feb-08 08:30N 31°18' E 121°47'510.9
2018-Feb-08 08:00N 31°16' E 121°53'10 9.8
2018-Feb-08 07:00N 31°14' E 122°05'5 9.1
2018-Feb-08 06:30N 31°12' E 122°09'  
Track history (hours):
 
Tides and Currents Weather Stations Pressure Air Temp Water Temp Dewpoint Dewpoint Depression Visibility Wind Speed Wind Dir Waves Ship Positions

Agamemnon

Last reported at 2018-Feb-17 20:19 UTC. Time now 2018-Feb-21 15:34 UTC.
Position N 41°38' E 142°06'.

Length 318 m; draft 12.1 m.

Type: Cargo ship. MMSI: 636015744.

Date/timePositionNaut miles runAvg speedWind from/ knotsBaromVisibWave heightAir tempDewpointWater temp
2018-Feb-17 20:19N 41°38' E 142°06'819.1
2018-Feb-17 19:54N 41°38' E 141°56'719.3
2018-Feb-17 19:30N 41°37' E 141°46'1020.6
2018-Feb-17 19:00N 41°37' E 141°32'1121.6
2018-Feb-17 18:30N 41°36' E 141°17'1122.8
2018-Feb-17 18:00N 41°37' E 141°02'1223.3
2018-Feb-17 17:31N 41°34' E 140°47'1122.2
2018-Feb-17 17:00N 41°28' E 140°35'1223.2
2018-Feb-17 16:31N 41°21' E 140°22'1223.1
2018-Feb-17 16:00N 41°15' E 140°09'  
2018-Feb-10 04:40N 31°05' E 122°42'518.9
2018-Feb-10 04:25N 31°06' E 122°37'914.8
2018-Feb-10 03:49N 31°06' E 122°26'410.5
2018-Feb-10 03:28N 31°06' E 122°22'1513.3
2018-Feb-10 02:22N 31°13' E 122°07'1013.0
2018-Feb-10 01:35N 31°15' E 121°55'112.2
2018-Feb-10 01:30N 31°16' E 121°54'612.0
2018-Feb-10 00:58N 31°18' E 121°47'611.5
2018-Feb-10 00:27N 31°20' E 121°41'511.6
2018-Feb-10 00:00N 31°23' E 121°35'1 1.0
2018-Feb-09 23:28N 31°23' E 121°35'12 0.3
2018-Feb-08 08:30N 31°18' E 121°47'510.9
2018-Feb-08 08:00N 31°16' E 121°53'10 9.8
2018-Feb-08 07:00N 31°14' E 122°05'5 9.1
2018-Feb-08 06:30N 31°12' E 122°09'  

Dump ship's entire track history